Time;durP1;ratioP1;P1;durP2;ratioP2;P2;SDS_P1;SDS_P2;PMS_P1;PMS_P2;Temp;Humidity;BMP_temperature;BMP_pressure;BME280_temperature;BME280_humidity;BME280_pressure;Samples;Min_cycle;Max_cycle;Signal;HPM_P1;HPM_P2
2021/10/16 00:01:55;;;;;;;16.50;6.15;;;;;;;;;;5031729;28;20418;-65
2021/10/16 00:04:21;;;;;;;15.13;6.40;;;;;;;;;;5023922;28;20461;-65
2021/10/16 00:06:47;;;;;;;15.10;6.32;;;;;;;;;;5041766;28;20060;-65
2021/10/16 00:09:18;;;;;;;13.07;5.60;;;;;;;;;;5020735;28;21001;-65
2021/10/16 00:11:44;;;;;;;16.85;6.65;;;;;;;;;;5028441;28;20048;-65
2021/10/16 00:14:10;;;;;;;20.05;6.13;;;;;;;;;;5034752;28;20452;-65
2021/10/16 00:16:37;;;;;;;17.63;6.30;;;;;;;;;;5024577;28;20045;-65
2021/10/16 00:19:05;;;;;;;16.75;6.20;;;;;;;;;;5031674;28;20050;-65
2021/10/16 00:21:31;;;;;;;15.55;5.93;;;;;;;;;;5024064;28;20204;-65
2021/10/16 00:23:57;;;;;;;20.38;7.05;;;;;;;;;;5034990;28;20054;-65
2021/10/16 00:26:23;;;;;;;18.60;7.68;;;;;;;;;;5033160;28;20378;-65
2021/10/16 00:28:50;;;;;;;27.73;6.97;;;;;;;;;;5041536;28;20048;-65
2021/10/16 00:31:16;;;;;;;15.80;6.25;;;;;;;;;;5043173;28;20057;-65
2021/10/16 00:33:43;;;;;;;19.30;7.10;;;;;;;;;;5036132;28;20049;-65
2021/10/16 00:36:10;;;;;;;18.13;6.60;;;;;;;;;;5038727;28;20504;-65
2021/10/16 00:38:36;;;;;;;16.55;6.53;;;;;;;;;;5029613;28;20041;-65
2021/10/16 00:41:02;;;;;;;23.75;6.43;;;;;;;;;;5023126;28;20045;-65
2021/10/16 00:43:29;;;;;;;16.38;6.22;;;;;;;;;;5032420;28;20045;-65
2021/10/16 00:45:55;;;;;;;19.75;5.95;;;;;;;;;;5043468;28;20433;-65
2021/10/16 00:48:22;;;;;;;12.05;5.63;;;;;;;;;;5041182;28;20539;-65
2021/10/16 00:50:48;;;;;;;19.48;5.72;;;;;;;;;;5025116;28;20115;-65
2021/10/16 00:53:15;;;;;;;15.18;6.10;;;;;;;;;;5037296;28;20052;-65
2021/10/16 00:55:42;;;;;;;12.68;5.00;;;;;;;;;;5018092;28;20137;-66
2021/10/16 00:58:09;;;;;;;20.00;6.38;;;;;;;;;;5042402;28;20072;-65
2021/10/16 01:00:35;;;;;;;15.88;6.20;;;;;;;;;;5028848;28;20049;-65
2021/10/16 01:03:02;;;;;;;10.70;5.70;;;;;;;;;;5037700;28;20054;-65
2021/10/16 01:05:29;;;;;;;13.10;5.85;;;;;;;;;;5018824;28;20049;-65
2021/10/16 01:07:55;;;;;;;16.70;6.45;;;;;;;;;;5030240;28;20495;-65
2021/10/16 01:10:21;;;;;;;15.27;6.25;;;;;;;;;;5027943;28;20116;-65
2021/10/16 01:12:49;;;;;;;17.60;6.57;;;;;;;;;;5038517;28;20425;-65
2021/10/16 01:15:19;;;;;;;17.33;6.32;;;;;;;;;;5021448;28;20045;-65
2021/10/16 01:17:47;;;;;;;14.00;5.90;;;;;;;;;;5039424;28;20126;-65
2021/10/16 01:20:18;;;;;;;14.45;6.20;;;;;;;;;;5023977;28;20045;-65
2021/10/16 01:22:45;;;;;;;16.13;6.65;;;;;;;;;;5041497;28;20052;-65
2021/10/16 01:25:13;;;;;;;18.98;7.28;;;;;;;;;;5033681;28;20084;-66
2021/10/16 01:27:39;;;;;;;21.60;6.20;;;;;;;;;;5041455;28;20067;-66
2021/10/16 01:30:07;;;;;;;18.83;6.80;;;;;;;;;;5035314;28;20399;-65
2021/10/16 01:32:34;;;;;;;17.33;8.30;;;;;;;;;;5046013;28;20052;-65
2021/10/16 01:35:01;;;;;;;17.35;7.05;;;;;;;;;;5025573;28;20044;-65
2021/10/16 01:37:28;;;;;;;28.10;7.28;;;;;;;;;;5041167;28;20127;-65
2021/10/16 01:39:54;;;;;;;20.73;8.52;;;;;;;;;;5039154;28;20057;-65
2021/10/16 01:42:20;;;;;;;18.83;7.85;;;;;;;;;;5036690;28;20127;-65
2021/10/16 01:44:47;;;;;;;15.35;6.90;;;;;;;;;;5044663;28;20052;-65
2021/10/16 01:47:13;;;;;;;19.77;7.07;;;;;;;;;;5032703;28;20049;-64
2021/10/16 01:49:39;;;;;;;17.08;6.88;;;;;;;;;;5028604;28;20348;-64
2021/10/16 01:52:06;;;;;;;19.50;7.43;;;;;;;;;;5036234;28;20057;-64
2021/10/16 01:54:32;;;;;;;16.58;6.93;;;;;;;;;;5038160;28;20052;-64
2021/10/16 01:56:58;;;;;;;18.65;7.32;;;;;;;;;;5045363;28;20049;-64
2021/10/16 01:59:25;;;;;;;15.02;6.75;;;;;;;;;;5036576;28;20060;-64
2021/10/16 02:02:04;;;;;;;21.42;7.07;;;;;;;;;;5031338;28;20049;-64
2021/10/16 02:04:31;;;;;;;19.27;6.45;;;;;;;;;;5022180;28;20075;-64
2021/10/16 02:06:57;;;;;;;21.13;7.22;;;;;;;;;;5028610;28;20064;-64
2021/10/16 02:09:23;;;;;;;16.48;6.38;;;;;;;;;;5025405;28;20051;-64
2021/10/16 02:11:50;;;;;;;15.45;6.43;;;;;;;;;;5040807;28;20489;-64
2021/10/16 02:14:16;;;;;;;17.90;7.05;;;;;;;;;;5037646;28;20056;-64
2021/10/16 02:16:42;;;;;;;16.98;7.28;;;;;;;;;;5006002;28;20060;-64
2021/10/16 02:19:09;;;;;;;17.05;6.80;;;;;;;;;;5025805;28;20300;-65
2021/10/16 02:21:36;;;;;;;18.73;6.88;;;;;;;;;;5025010;28;20049;-65
2021/10/16 02:24:02;;;;;;;14.40;6.72;;;;;;;;;;5034836;28;20048;-65
2021/10/16 02:26:28;;;;;;;13.65;6.80;;;;;;;;;;5025615;28;20084;-65
2021/10/16 02:28:54;;;;;;;15.70;7.03;;;;;;;;;;5036424;28;20048;-65
2021/10/16 02:31:21;;;;;;;14.05;6.50;;;;;;;;;;5023337;28;20045;-65
2021/10/16 02:33:49;;;;;;;15.10;6.40;;;;;;;;;;5024582;28;20461;-67
2021/10/16 02:36:18;;;;;;;18.95;6.63;;;;;;;;;;5028929;28;20256;-65
2021/10/16 02:38:45;;;;;;;13.38;7.00;;;;;;;;;;5026204;28;20045;-66
2021/10/16 02:41:11;;;;;;;13.63;6.63;;;;;;;;;;5030360;28;20053;-65
2021/10/16 02:43:38;;;;;;;14.70;5.90;;;;;;;;;;5022210;28;20064;-64
2021/10/16 02:46:04;;;;;;;20.13;7.40;;;;;;;;;;5029937;28;20510;-64
2021/10/16 02:48:31;;;;;;;15.05;7.15;;;;;;;;;;5032157;28;20399;-64
2021/10/16 02:50:57;;;;;;;16.33;6.70;;;;;;;;;;5029235;28;20092;-64
2021/10/16 02:53:23;;;;;;;14.10;6.25;;;;;;;;;;5033975;28;20040;-64
2021/10/16 02:55:50;;;;;;;14.38;6.35;;;;;;;;;;5035763;28;20512;-64
2021/10/16 02:58:16;;;;;;;16.98;7.63;;;;;;;;;;5032691;28;20052;-64
2021/10/16 03:00:42;;;;;;;17.65;7.43;;;;;;;;;;5027437;28;20079;-64
2021/10/16 03:03:09;;;;;;;12.85;6.75;;;;;;;;;;5036158;28;20106;-64
2021/10/16 03:05:35;;;;;;;18.80;6.97;;;;;;;;;;5041091;28;20049;-64
2021/10/16 03:08:01;;;;;;;14.93;6.35;;;;;;;;;;5027729;28;20049;-65
2021/10/16 03:10:28;;;;;;;16.90;6.82;;;;;;;;;;5038007;28;20456;-64
2021/10/16 03:12:54;;;;;;;21.00;6.63;;;;;;;;;;5020878;28;20060;-64
2021/10/16 03:15:20;;;;;;;18.38;7.18;;;;;;;;;;5033605;28;20208;-64
2021/10/16 03:17:46;;;;;;;12.85;6.63;;;;;;;;;;5025802;28;20041;-64
2021/10/16 03:20:13;;;;;;;18.23;6.28;;;;;;;;;;5031085;28;20045;-64
2021/10/16 03:22:39;;;;;;;20.98;6.10;;;;;;;;;;5029327;28;20045;-63
2021/10/16 03:25:06;;;;;;;12.65;6.93;;;;;;;;;;5012901;28;20049;-64
2021/10/16 03:27:32;;;;;;;12.88;5.90;;;;;;;;;;5026034;28;20055;-65
2021/10/16 03:29:58;;;;;;;11.55;6.22;;;;;;;;;;5022042;28;20052;-63
2021/10/16 03:32:24;;;;;;;19.02;7.10;;;;;;;;;;5032825;28;20053;-64
2021/10/16 03:34:51;;;;;;;14.13;6.63;;;;;;;;;;5020079;28;20068;-65
2021/10/16 03:37:17;;;;;;;16.65;7.47;;;;;;;;;;5028640;28;20060;-64
2021/10/16 03:39:44;;;;;;;20.00;6.85;;;;;;;;;;5022386;28;20678;-64
2021/10/16 03:42:10;;;;;;;16.80;7.28;;;;;;;;;;5022404;28;20044;-64
2021/10/16 03:44:36;;;;;;;16.20;7.07;;;;;;;;;;5042272;28;20053;-64
2021/10/16 03:47:03;;;;;;;17.90;7.07;;;;;;;;;;5030552;28;20064;-64
2021/10/16 03:49:29;;;;;;;15.25;6.10;;;;;;;;;;5024295;28;20053;-64
2021/10/16 03:51:55;;;;;;;14.45;6.70;;;;;;;;;;5022503;28;20059;-64
2021/10/16 03:54:22;;;;;;;20.77;8.15;;;;;;;;;;5022183;28;20049;-64
2021/10/16 03:56:48;;;;;;;18.75;7.75;;;;;;;;;;5036145;28;20501;-64
2021/10/16 03:59:14;;;;;;;14.32;6.75;;;;;;;;;;5032031;28;20045;-65
2021/10/16 04:01:41;;;;;;;18.05;6.85;;;;;;;;;;5042032;28;20049;-65
2021/10/16 04:04:07;;;;;;;16.75;6.22;;;;;;;;;;5024569;28;20949;-64
2021/10/16 04:06:34;;;;;;;24.85;6.68;;;;;;;;;;5027630;28;20417;-65
2021/10/16 04:09:00;;;;;;;12.68;7.25;;;;;;;;;;5015347;28;20068;-64
2021/10/16 04:11:26;;;;;;;18.85;7.20;;;;;;;;;;5037430;28;20052;-64
2021/10/16 04:13:53;;;;;;;14.75;6.57;;;;;;;;;;5021874;28;20056;-65
2021/10/16 04:16:19;;;;;;;18.42;6.43;;;;;;;;;;5034792;28;20125;-64
2021/10/16 04:18:45;;;;;;;11.75;5.70;;;;;;;;;;5031736;28;20048;-64
2021/10/16 04:21:12;;;;;;;19.08;6.43;;;;;;;;;;5030348;28;20063;-65
2021/10/16 04:23:38;;;;;;;12.63;6.65;;;;;;;;;;5024395;28;20479;-65
2021/10/16 04:26:04;;;;;;;12.32;6.00;;;;;;;;;;5037481;28;20055;-64
2021/10/16 04:28:30;;;;;;;22.13;6.75;;;;;;;;;;5022890;28;20045;-64
2021/10/16 04:30:57;;;;;;;14.02;5.85;;;;;;;;;;5037035;28;20129;-64
2021/10/16 04:33:23;;;;;;;19.13;6.82;;;;;;;;;;5014458;28;20045;-64
2021/10/16 04:35:50;;;;;;;11.15;5.70;;;;;;;;;;5029939;28;20068;-64
2021/10/16 04:38:16;;;;;;;22.48;7.25;;;;;;;;;;5021787;28;20140;-65
2021/10/16 04:40:42;;;;;;;19.02;7.30;;;;;;;;;;5036941;28;20111;-64
2021/10/16 04:43:09;;;;;;;18.77;6.40;;;;;;;;;;5030457;28;20331;-65
2021/10/16 04:45:35;;;;;;;15.23;6.20;;;;;;;;;;5030575;28;20053;-64
2021/10/16 04:48:04;;;;;;;18.50;6.50;;;;;;;;;;5008298;28;20045;-64
2021/10/16 04:50:30;;;;;;;13.55;6.15;;;;;;;;;;5029860;28;20061;-65
2021/10/16 04:52:56;;;;;;;15.15;6.50;;;;;;;;;;5031520;28;20743;-64
2021/10/16 04:55:23;;;;;;;13.40;7.47;;;;;;;;;;5035386;28;20107;-64
2021/10/16 04:57:50;;;;;;;15.82;6.82;;;;;;;;;;5031384;28;20702;-64
2021/10/16 05:00:16;;;;;;;18.38;7.22;;;;;;;;;;5028939;28;20773;-64
2021/10/16 05:02:43;;;;;;;21.20;6.85;;;;;;;;;;5034954;28;20395;-64
2021/10/16 05:05:09;;;;;;;21.52;7.15;;;;;;;;;;5036737;28;20057;-64
2021/10/16 05:07:35;;;;;;;20.02;6.40;;;;;;;;;;5030312;28;20060;-63
2021/10/16 05:10:03;;;;;;;13.40;5.85;;;;;;;;;;5035345;28;20103;-64
2021/10/16 05:12:29;;;;;;;13.85;5.60;;;;;;;;;;5023606;28;20404;-64
2021/10/16 05:14:56;;;;;;;14.15;6.45;;;;;;;;;;5040761;28;20467;-64
2021/10/16 05:17:22;;;;;;;16.17;6.18;;;;;;;;;;5037888;28;20049;-65
2021/10/16 05:19:49;;;;;;;21.05;7.00;;;;;;;;;;5029532;28;20045;-64
2021/10/16 05:22:15;;;;;;;17.73;6.47;;;;;;;;;;5034151;28;20570;-64
2021/10/16 05:24:41;;;;;;;18.00;6.57;;;;;;;;;;5031340;28;20067;-65
2021/10/16 05:27:08;;;;;;;20.40;6.40;;;;;;;;;;5035594;28;20505;-64
2021/10/16 05:29:34;;;;;;;15.88;6.55;;;;;;;;;;5024032;28;20042;-64
2021/10/16 05:32:00;;;;;;;15.15;6.18;;;;;;;;;;5036496;28;20131;-64
2021/10/16 05:34:26;;;;;;;15.20;6.38;;;;;;;;;;5036484;28;20857;-64
2021/10/16 05:36:53;;;;;;;12.93;6.15;;;;;;;;;;5030014;28;20071;-65
2021/10/16 05:39:19;;;;;;;12.60;5.60;;;;;;;;;;5033525;28;20061;-64
2021/10/16 05:41:47;;;;;;;28.63;7.75;;;;;;;;;;5027130;28;20410;-65
2021/10/16 05:44:13;;;;;;;17.85;5.70;;;;;;;;;;5025925;28;20144;-64
2021/10/16 05:46:40;;;;;;;18.80;6.22;;;;;;;;;;5029211;28;20617;-65
2021/10/16 05:49:06;;;;;;;13.57;6.15;;;;;;;;;;5032557;28;20060;-66
2021/10/16 05:51:33;;;;;;;15.38;5.50;;;;;;;;;;5036933;28;20114;-65
2021/10/16 05:53:59;;;;;;;16.02;6.43;;;;;;;;;;5030095;28;20045;-65
2021/10/16 05:56:26;;;;;;;18.90;6.35;;;;;;;;;;5036564;28;20049;-65
2021/10/16 05:58:58;;;;;;;13.85;6.22;;;;;;;;;;5031030;28;20407;-65
2021/10/16 06:01:25;;;;;;;14.82;5.50;;;;;;;;;;5033210;28;20493;-66
2021/10/16 06:03:52;;;;;;;16.02;5.60;;;;;;;;;;5024804;28;20447;-65
2021/10/16 06:06:19;;;;;;;16.95;6.70;;;;;;;;;;5038683;28;20456;-65
2021/10/16 06:08:45;;;;;;;13.98;5.90;;;;;;;;;;5028871;28;20281;-66
2021/10/16 06:11:11;;;;;;;15.80;5.78;;;;;;;;;;5024999;28;20051;-65
2021/10/16 06:13:38;;;;;;;20.60;6.85;;;;;;;;;;5035637;28;20061;-65
2021/10/16 06:16:04;;;;;;;14.95;5.93;;;;;;;;;;5030290;28;20044;-64
2021/10/16 06:18:30;;;;;;;15.75;6.28;;;;;;;;;;5032661;28;20052;-64
2021/10/16 06:20:57;;;;;;;12.00;5.75;;;;;;;;;;5031070;28;20053;-64
2021/10/16 06:23:23;;;;;;;13.90;5.05;;;;;;;;;;5023655;28;20057;-65
2021/10/16 06:25:49;;;;;;;21.67;7.25;;;;;;;;;;5032071;28;20647;-65
2021/10/16 06:28:16;;;;;;;18.77;6.40;;;;;;;;;;5028070;28;20544;-64
2021/10/16 06:30:43;;;;;;;17.63;6.20;;;;;;;;;;5038222;28;20637;-64
2021/10/16 06:33:09;;;;;;;21.63;6.00;;;;;;;;;;5018830;28;20429;-65
2021/10/16 06:35:37;;;;;;;14.52;5.30;;;;;;;;;;5035113;28;20064;-66
2021/10/16 06:38:04;;;;;;;16.13;6.07;;;;;;;;;;5012766;28;20266;-63
2021/10/16 06:40:31;;;;;;;15.50;6.20;;;;;;;;;;5036344;28;20076;-65
2021/10/16 06:42:57;;;;;;;14.38;6.80;;;;;;;;;;5037421;28;20492;-65
2021/10/16 06:45:23;;;;;;;14.48;6.13;;;;;;;;;;5032306;28;20061;-65
2021/10/16 06:47:50;;;;;;;18.75;5.82;;;;;;;;;;5026406;28;20092;-65
2021/10/16 06:50:16;;;;;;;14.02;6.22;;;;;;;;;;5029965;28;20060;-64
2021/10/16 06:52:42;;;;;;;12.50;5.55;;;;;;;;;;5001679;28;20057;-65
2021/10/16 06:55:09;;;;;;;13.77;6.13;;;;;;;;;;5036066;28;20059;-65
2021/10/16 06:57:35;;;;;;;21.77;6.18;;;;;;;;;;5023514;28;20056;-64
2021/10/16 07:00:03;;;;;;;15.00;5.90;;;;;;;;;;5039471;28;20045;-64
2021/10/16 07:02:29;;;;;;;15.53;5.80;;;;;;;;;;5021661;28;20091;-65
2021/10/16 07:04:55;;;;;;;16.83;5.88;;;;;;;;;;5035027;28;20053;-65
2021/10/16 07:07:22;;;;;;;21.02;6.07;;;;;;;;;;5011847;28;20048;-65
2021/10/16 07:09:48;;;;;;;15.23;5.93;;;;;;;;;;5039571;28;20059;-64
2021/10/16 07:12:14;;;;;;;19.50;6.70;;;;;;;;;;5022084;28;20053;-65
2021/10/16 07:14:41;;;;;;;15.68;6.13;;;;;;;;;;5036792;28;20561;-65
2021/10/16 07:17:11;;;;;;;20.60;5.35;;;;;;;;;;5031323;28;20068;-65
2021/10/16 07:19:38;;;;;;;21.17;6.78;;;;;;;;;;5024381;28;20049;-65
2021/10/16 07:22:04;;;;;;;17.30;6.25;;;;;;;;;;5017553;28;20057;-65
2021/10/16 07:24:30;;;;;;;16.30;6.00;;;;;;;;;;5028676;28;20049;-65
2021/10/16 07:26:56;;;;;;;18.10;6.82;;;;;;;;;;5032665;28;20056;-66
2021/10/16 07:29:23;;;;;;;17.33;6.20;;;;;;;;;;5031439;28;20053;-65
2021/10/16 07:31:50;;;;;;;15.23;5.80;;;;;;;;;;5028110;28;20455;-65
2021/10/16 07:34:18;;;;;;;20.67;6.57;;;;;;;;;;5029448;28;20060;-65
2021/10/16 07:36:45;;;;;;;16.93;6.00;;;;;;;;;;5020206;28;20045;-65
2021/10/16 07:39:11;;;;;;;18.80;6.07;;;;;;;;;;5034765;28;20046;-65
2021/10/16 07:41:38;;;;;;;15.15;6.07;;;;;;;;;;5017598;28;20044;-65
2021/10/16 07:44:05;;;;;;;17.85;6.43;;;;;;;;;;5034938;28;20469;-65
2021/10/16 07:46:32;;;;;;;18.25;6.75;;;;;;;;;;4998976;28;20053;-65
2021/10/16 07:48:58;;;;;;;26.38;7.22;;;;;;;;;;5031229;28;20624;-66
2021/10/16 07:51:24;;;;;;;22.45;7.00;;;;;;;;;;5025584;28;20333;-65
2021/10/16 07:53:51;;;;;;;26.45;8.05;;;;;;;;;;5033934;28;20053;-65
2021/10/16 07:56:17;;;;;;;18.08;6.95;;;;;;;;;;5028150;28;20059;-65
2021/10/16 07:58:43;;;;;;;18.08;6.95;;;;;;;;;;5026890;28;20045;-65
2021/10/16 08:01:10;;;;;;;20.33;7.60;;;;;;;;;;5028078;28;20569;-65
2021/10/16 08:03:37;;;;;;;18.88;6.80;;;;;;;;;;5032111;28;20050;-65
2021/10/16 08:06:04;;;;;;;15.35;6.30;;;;;;;;;;5033736;28;20049;-65
2021/10/16 08:08:30;;;;;;;19.60;7.00;;;;;;;;;;5034826;28;20065;-65
2021/10/16 08:10:57;;;;;;;19.48;6.35;;;;;;;;;;5023295;28;20218;-64
2021/10/16 08:13:25;;;;;;;20.55;6.40;;;;;;;;;;5034168;28;20089;-64
2021/10/16 08:15:52;;;;;;;22.40;6.65;;;;;;;;;;5015381;28;20354;-64
2021/10/16 08:18:18;;;;;;;20.88;7.13;;;;;;;;;;5026306;28;20692;-64
2021/10/16 08:20:45;;;;;;;23.88;7.32;;;;;;;;;;5017514;28;20539;-65
2021/10/16 08:23:12;;;;;;;11.80;5.13;;;;;;;;;;5033307;28;20053;-65
2021/10/16 08:25:38;;;;;;;16.85;6.35;;;;;;;;;;5028316;28;20049;-64
2021/10/16 08:28:14;;;;;;;18.38;6.22;;;;;;;;;;5025846;28;20494;-65
2021/10/16 08:30:46;;;;;;;20.42;6.82;;;;;;;;;;5023038;28;20128;-65
2021/10/16 08:33:12;;;;;;;13.38;5.18;;;;;;;;;;5026329;28;20045;-65
2021/10/16 08:35:38;;;;;;;13.85;6.30;;;;;;;;;;5026954;28;20049;-64
2021/10/16 08:38:05;;;;;;;14.73;5.60;;;;;;;;;;5027857;28;20041;-65
2021/10/16 08:40:31;;;;;;;14.77;6.60;;;;;;;;;;5029968;28;20474;-65
2021/10/16 08:42:57;;;;;;;18.45;6.55;;;;;;;;;;5027664;28;20054;-65
2021/10/16 08:45:24;;;;;;;18.52;6.18;;;;;;;;;;5016693;28;20060;-63
2021/10/16 08:47:50;;;;;;;20.10;6.57;;;;;;;;;;5031180;28;20437;-65
2021/10/16 08:50:17;;;;;;;18.80;5.80;;;;;;;;;;5028747;28;20398;-65
2021/10/16 08:52:43;;;;;;;25.58;6.70;;;;;;;;;;5037182;28;20851;-65
2021/10/16 08:55:10;;;;;;;13.55;5.68;;;;;;;;;;5024557;28;20053;-64
2021/10/16 08:57:41;;;;;;;23.65;6.13;;;;;;;;;;5024939;28;20042;-65
2021/10/16 09:00:26;;;;;;;21.60;7.00;;;;;;;;;;5032270;28;20060;-65
2021/10/16 09:02:52;;;;;;;21.92;6.22;;;;;;;;;;5022496;28;20076;-64
2021/10/16 09:05:19;;;;;;;32.10;6.60;;;;;;;;;;5020573;28;20045;-65
2021/10/16 09:07:45;;;;;;;20.70;6.75;;;;;;;;;;5018447;28;20049;-65
2021/10/16 09:10:18;;;;;;;19.17;6.65;;;;;;;;;;5030017;28;20245;-65
2021/10/16 09:12:45;;;;;;;21.42;6.63;;;;;;;;;;5026260;28;20056;-65
2021/10/16 09:15:21;;;;;;;22.25;7.25;;;;;;;;;;5035266;28;20068;-65
2021/10/16 09:18:04;;;;;;;18.48;6.40;;;;;;;;;;5013099;28;20052;-65
2021/10/16 09:20:37;;;;;;;27.98;7.90;;;;;;;;;;5022535;28;20044;-65
2021/10/16 09:23:05;;;;;;;21.40;6.70;;;;;;;;;;5018393;28;20046;-65
2021/10/16 09:25:31;;;;;;;23.70;7.50;;;;;;;;;;5026660;28;20372;-65
2021/10/16 09:28:16;;;;;;;24.23;7.20;;;;;;;;;;5027927;28;20064;-65
2021/10/16 09:30:46;;;;;;;17.77;5.95;;;;;;;;;;5032522;28;20061;-65
2021/10/16 09:33:13;;;;;;;24.85;6.57;;;;;;;;;;5027660;28;20409;-65
2021/10/16 09:35:40;;;;;;;19.13;6.25;;;;;;;;;;5027899;28;20061;-65
2021/10/16 09:38:07;;;;;;;18.10;5.22;;;;;;;;;;5032500;28;20182;-65
2021/10/16 09:40:33;;;;;;;27.88;6.90;;;;;;;;;;5023518;28;20461;-65
2021/10/16 09:43:15;;;;;;;25.30;6.75;;;;;;;;;;5027320;28;20394;-65
2021/10/16 09:45:42;;;;;;;18.55;4.95;;;;;;;;;;5033583;28;20684;-65
2021/10/16 09:48:10;;;;;;;22.75;4.45;;;;;;;;;;5023161;28;20053;-65
2021/10/16 09:50:36;;;;;;;24.92;4.68;;;;;;;;;;5025149;28;20053;-65
2021/10/16 09:53:17;;;;;;;23.50;4.57;;;;;;;;;;5019274;28;20048;-65
2021/10/16 09:55:45;;;;;;;20.52;5.30;;;;;;;;;;5025123;28;20056;-65
2021/10/16 09:58:13;;;;;;;21.83;5.10;;;;;;;;;;5033659;28;20060;-65
2021/10/16 10:00:40;;;;;;;22.05;4.18;;;;;;;;;;5035103;28;20494;-65
2021/10/16 10:03:09;;;;;;;18.27;3.92;;;;;;;;;;5035135;28;20055;-65
2021/10/16 10:05:35;;;;;;;22.98;3.95;;;;;;;;;;5015332;28;20045;-65
2021/10/16 10:08:04;;;;;;;17.33;4.70;;;;;;;;;;5030497;28;20542;-65
2021/10/16 10:10:31;;;;;;;22.25;4.40;;;;;;;;;;5020772;28;20515;-65
2021/10/16 10:12:57;;;;;;;20.20;4.50;;;;;;;;;;5036148;28;20051;-65
2021/10/16 10:15:24;;;;;;;14.13;4.47;;;;;;;;;;5021501;28;20067;-66
2021/10/16 10:17:50;;;;;;;17.98;4.00;;;;;;;;;;5038465;28;20060;-65
2021/10/16 10:20:18;;;;;;;18.52;4.85;;;;;;;;;;5027654;28;20485;-65
2021/10/16 10:22:44;;;;;;;21.00;3.83;;;;;;;;;;5015723;28;20080;-65
2021/10/16 10:25:19;;;;;;;21.50;4.90;;;;;;;;;;5030414;28;20566;-65
2021/10/16 10:27:46;;;;;;;19.38;3.90;;;;;;;;;;5036577;28;20040;-65
2021/10/16 10:30:31;;;;;;;20.98;4.35;;;;;;;;;;5032833;28;20041;-65
2021/10/16 10:33:16;;;;;;;20.33;4.07;;;;;;;;;;5030865;28;20050;-65
2021/10/16 10:36:07;;;;;;;20.60;4.53;;;;;;;;;;5015748;28;20053;-65
2021/10/16 10:38:37;;;;;;;17.88;4.10;;;;;;;;;;5026959;28;20056;-65
2021/10/16 10:41:27;;;;;;;16.67;3.90;;;;;;;;;;5028299;28;20064;-65
2021/10/16 10:43:53;;;;;;;20.17;5.22;;;;;;;;;;5030635;28;20068;-66
2021/10/16 10:46:29;;;;;;;23.35;4.60;;;;;;;;;;5024270;28;20056;-65
2021/10/16 10:49:09;;;;;;;21.67;5.75;;;;;;;;;;5031556;28;20501;-65
2021/10/16 10:51:37;;;;;;;15.32;4.32;;;;;;;;;;5028919;28;20570;-65
2021/10/16 10:54:11;;;;;;;18.92;4.65;;;;;;;;;;5032473;28;20502;-65
2021/10/16 10:56:38;;;;;;;22.08;4.72;;;;;;;;;;5032990;28;20041;-65
2021/10/16 10:59:09;;;;;;;15.00;4.13;;;;;;;;;;5033486;28;20060;-65
2021/10/16 11:01:42;;;;;;;16.40;4.53;;;;;;;;;;5029656;28;20287;-65
2021/10/16 11:04:09;;;;;;;22.75;4.72;;;;;;;;;;5030278;28;20072;-65
2021/10/16 11:06:35;;;;;;;17.23;4.10;;;;;;;;;;5036848;28;20053;-65
2021/10/16 11:09:13;;;;;;;19.40;4.53;;;;;;;;;;5023413;28;20053;-65
2021/10/16 11:11:46;;;;;;;25.20;4.60;;;;;;;;;;5037525;28;20364;-65
2021/10/16 11:14:12;;;;;;;18.73;4.40;;;;;;;;;;5016805;28;20053;-66
2021/10/16 11:16:53;;;;;;;20.35;5.10;;;;;;;;;;5032464;28;20049;-65
2021/10/16 11:19:20;;;;;;;19.65;4.60;;;;;;;;;;5021939;28;20053;-66
2021/10/16 11:21:52;;;;;;;15.85;4.45;;;;;;;;;;5037474;28;20227;-66
2021/10/16 11:24:19;;;;;;;25.42;4.00;;;;;;;;;;5020346;28;20049;-66
2021/10/16 11:26:56;;;;;;;27.17;6.75;;;;;;;;;;5019494;28;20053;-66
2021/10/16 11:29:33;;;;;;;21.92;4.45;;;;;;;;;;5021995;28;20049;-66
2021/10/16 11:32:13;;;;;;;14.57;4.13;;;;;;;;;;5035530;28;20053;-67
2021/10/16 11:34:39;;;;;;;16.70;3.47;;;;;;;;;;5018299;28;20156;-66
2021/10/16 11:37:06;;;;;;;21.65;4.43;;;;;;;;;;5026071;28;20057;-67
2021/10/16 11:39:35;;;;;;;22.70;3.33;;;;;;;;;;5036373;28;20052;-66
2021/10/16 11:42:02;;;;;;;14.85;3.05;;;;;;;;;;5022853;28;20050;-66
2021/10/16 11:44:29;;;;;;;22.80;3.17;;;;;;;;;;5029914;28;20133;-65
2021/10/16 11:47:01;;;;;;;20.20;3.35;;;;;;;;;;5024632;28;20053;-66
2021/10/16 11:49:29;;;;;;;19.92;3.17;;;;;;;;;;5031004;28;20048;-66
2021/10/16 11:51:55;;;;;;;17.77;3.67;;;;;;;;;;5035775;28;20044;-66
2021/10/16 11:54:21;;;;;;;16.65;3.40;;;;;;;;;;5022132;28;20541;-65
2021/10/16 11:56:54;;;;;;;19.17;3.20;;;;;;;;;;5030109;28;20049;-65
2021/10/16 11:59:21;;;;;;;23.60;3.53;;;;;;;;;;5030196;28;20497;-66
2021/10/16 12:01:47;;;;;;;21.50;3.47;;;;;;;;;;5032702;28;20045;-66
2021/10/16 12:04:13;;;;;;;19.20;3.50;;;;;;;;;;5029005;28;20052;-66
2021/10/16 12:06:40;;;;;;;18.30;3.53;;;;;;;;;;5024755;28;20049;-66
2021/10/16 12:09:11;;;;;;;19.45;3.83;;;;;;;;;;5032728;28;20056;-65
2021/10/16 12:11:38;;;;;;;21.13;3.92;;;;;;;;;;5027146;28;20049;-66
2021/10/16 12:14:12;;;;;;;17.27;3.65;;;;;;;;;;5019347;28;20416;-66
2021/10/16 12:16:39;;;;;;;14.93;3.75;;;;;;;;;;5012120;28;20049;-66
2021/10/16 12:19:16;;;;;;;14.48;3.75;;;;;;;;;;5035570;28;20053;-66
2021/10/16 12:21:43;;;;;;;14.27;2.42;;;;;;;;;;5017519;28;20117;-66
2021/10/16 12:24:14;;;;;;;12.52;2.80;;;;;;;;;;5028205;28;20045;-66
2021/10/16 12:26:41;;;;;;;16.23;2.92;;;;;;;;;;5035800;28;20142;-66
2021/10/16 12:29:09;;;;;;;17.27;2.83;;;;;;;;;;5030003;28;20048;-66
2021/10/16 12:31:43;;;;;;;18.93;3.40;;;;;;;;;;5024151;28;20517;-66
2021/10/16 12:34:15;;;;;;;15.27;3.70;;;;;;;;;;5031041;28;20053;-66
2021/10/16 12:36:49;;;;;;;12.43;2.80;;;;;;;;;;5019099;28;20057;-66
2021/10/16 12:39:22;;;;;;;18.38;3.10;;;;;;;;;;5020752;28;20052;-66
2021/10/16 12:42:08;;;;;;;17.50;3.28;;;;;;;;;;5028750;28;20136;-66
2021/10/16 12:44:38;;;;;;;19.52;3.38;;;;;;;;;;5022291;28;20517;-65
2021/10/16 12:47:15;;;;;;;13.48;3.58;;;;;;;;;;5028338;28;20048;-66
2021/10/16 12:49:45;;;;;;;16.05;3.60;;;;;;;;;;5029376;28;20410;-66
2021/10/16 12:52:25;;;;;;;21.27;3.80;;;;;;;;;;5015945;28;20053;-66
2021/10/16 12:54:52;;;;;;;14.95;3.47;;;;;;;;;;5034269;28;20378;-66
2021/10/16 12:57:19;;;;;;;18.30;3.33;;;;;;;;;;5030665;28;20044;-66
2021/10/16 12:59:45;;;;;;;16.55;3.33;;;;;;;;;;5031781;28;20041;-66
2021/10/16 13:02:11;;;;;;;19.83;3.58;;;;;;;;;;5027270;28;20045;-66
2021/10/16 13:04:48;;;;;;;17.60;4.13;;;;;;;;;;5021548;28;20076;-66
2021/10/16 13:07:15;;;;;;;18.35;3.75;;;;;;;;;;5034381;28;20048;-65
2021/10/16 13:09:42;;;;;;;12.52;2.47;;;;;;;;;;5020260;28;20594;-65
2021/10/16 13:12:09;;;;;;;16.83;3.30;;;;;;;;;;5042505;28;20048;-65
2021/10/16 13:14:35;;;;;;;15.80;3.17;;;;;;;;;;5022836;28;20049;-65
2021/10/16 13:17:01;;;;;;;19.17;2.78;;;;;;;;;;5023036;28;20063;-66
2021/10/16 13:19:28;;;;;;;13.90;2.45;;;;;;;;;;5008617;28;20049;-65
2021/10/16 13:21:54;;;;;;;20.27;3.20;;;;;;;;;;5040931;28;20052;-66
2021/10/16 13:24:21;;;;;;;12.35;3.30;;;;;;;;;;5024702;28;20064;-65
2021/10/16 13:26:47;;;;;;;15.73;3.33;;;;;;;;;;5020403;28;20494;-65
2021/10/16 13:29:13;;;;;;;17.23;3.75;;;;;;;;;;5025829;28;20482;-66
2021/10/16 13:31:40;;;;;;;13.23;3.03;;;;;;;;;;5032465;28;20554;-65
2021/10/16 13:34:06;;;;;;;14.93;3.38;;;;;;;;;;5025316;28;20551;-65
2021/10/16 13:36:33;;;;;;;17.65;4.28;;;;;;;;;;5034098;28;20547;-65
2021/10/16 13:38:59;;;;;;;15.82;4.13;;;;;;;;;;5026811;28;20249;-64
2021/10/16 13:41:26;;;;;;;17.90;3.60;;;;;;;;;;5043490;28;20049;-66
2021/10/16 13:43:52;;;;;;;16.70;3.20;;;;;;;;;;5019503;28;20052;-66
2021/10/16 13:46:18;;;;;;;17.55;3.65;;;;;;;;;;5032265;28;20174;-64
2021/10/16 13:48:45;;;;;;;18.63;3.80;;;;;;;;;;5021967;28;20050;-66
2021/10/16 13:51:11;;;;;;;15.20;3.42;;;;;;;;;;5039460;28;20488;-66
2021/10/16 13:53:37;;;;;;;18.05;4.15;;;;;;;;;;5021030;28;20149;-65
2021/10/16 13:56:03;;;;;;;16.90;4.93;;;;;;;;;;5040057;28;20044;-66
2021/10/16 13:58:30;;;;;;;15.90;4.18;;;;;;;;;;5028508;28;20389;-65
2021/10/16 14:00:56;;;;;;;15.52;3.10;;;;;;;;;;5027158;28;20088;-66
2021/10/16 14:03:23;;;;;;;13.27;3.55;;;;;;;;;;5007988;28;20102;-65
2021/10/16 14:05:49;;;;;;;9.40;2.72;;;;;;;;;;5030468;28;20378;-65
2021/10/16 14:08:16;;;;;;;16.35;3.60;;;;;;;;;;5025191;28;20132;-65
2021/10/16 14:10:42;;;;;;;17.25;2.67;;;;;;;;;;5038641;28;20422;-65
2021/10/16 14:13:08;;;;;;;18.90;3.30;;;;;;;;;;5027340;28;20502;-65
2021/10/16 14:15:34;;;;;;;19.95;3.40;;;;;;;;;;5014157;28;20057;-65
2021/10/16 14:18:01;;;;;;;23.98;3.47;;;;;;;;;;5019175;28;20053;-66
2021/10/16 14:20:27;;;;;;;10.82;3.05;;;;;;;;;;5038450;28;20399;-65
2021/10/16 14:22:53;;;;;;;16.50;3.15;;;;;;;;;;5017963;28;20115;-65
2021/10/16 14:25:20;;;;;;;9.93;2.58;;;;;;;;;;5040723;28;20374;-65
2021/10/16 14:27:46;;;;;;;15.13;2.92;;;;;;;;;;5031985;28;20049;-65
2021/10/16 14:30:13;;;;;;;10.52;2.47;;;;;;;;;;5025793;28;20147;-65
2021/10/16 14:32:40;;;;;;;15.93;3.13;;;;;;;;;;5025930;28;20064;-65
2021/10/16 14:35:06;;;;;;;16.50;3.72;;;;;;;;;;5027320;28;20046;-65